Time;durP1;ratioP1;P1;durP2;ratioP2;P2;SDS_P1;SDS_P2;PMS_P1;PMS_P2;Temp;Humidity;BMP_temperature;BMP_pressure;BME280_temperature;BME280_humidity;BME280_pressure;Samples;Min_cycle;Max_cycle;Signal;HPM_P1;HPM_P2
2022/01/29 00:01:10;;;;;;;46.67;20.05;;;;;;;4.71;94.08;102759.47;5023773;28;20032;-68
2022/01/29 00:03:36;;;;;;;46.83;20.83;;;;;;;4.78;94.25;102753.16;5041807;28;20025;-67
2022/01/29 00:06:03;;;;;;;57.63;22.33;;;;;;;4.80;93.36;102756.50;5028966;28;20521;-67
2022/01/29 00:08:32;;;;;;;55.13;21.02;;;;;;;4.86;93.40;102757.06;5015356;28;20068;-68
2022/01/29 00:11:10;;;;;;;47.13;20.50;;;;;;;4.83;93.40;102746.09;5037747;28;20036;-67
2022/01/29 00:13:37;;;;;;;69.10;23.63;;;;;;;4.83;93.57;102738.38;5032471;28;20036;-67
2022/01/29 00:16:03;;;;;;;52.15;22.20;;;;;;;4.87;94.11;102735.56;5050436;23;20036;-79
2022/01/29 00:18:28;;;;;;;54.08;23.35;;;;;;;4.80;94.08;102736.78;5051678;28;20071;-80
2022/01/29 00:20:53;;;;;;;54.90;23.67;;;;;;;4.73;94.59;102724.25;5046419;28;20047;-79
2022/01/29 00:23:19;;;;;;;65.50;23.52;;;;;;;4.77;94.31;102718.94;5044027;28;20394;-78
2022/01/29 00:25:44;;;;;;;58.88;23.40;;;;;;;4.76;94.67;102714.69;5032339;28;20056;-79
2022/01/29 00:28:12;;;;;;;65.57;23.88;;;;;;;4.88;94.49;102721.81;5041593;28;20113;-79
2022/01/29 00:30:41;;;;;;;60.33;23.80;;;;;;;4.81;94.34;102727.34;5038392;28;20494;-79
2022/01/29 00:33:07;;;;;;;64.93;23.88;;;;;;;4.76;94.60;102729.28;5032154;28;20033;-79
2022/01/29 00:35:32;;;;;;;63.20;24.95;;;;;;;4.80;94.76;102723.06;5045455;28;20102;-79
2022/01/29 00:37:58;;;;;;;54.72;23.52;;;;;;;4.79;94.16;102727.41;5032571;28;20036;-79
2022/01/29 00:40:24;;;;;;;55.05;23.98;;;;;;;4.86;94.53;102717.69;5054671;28;20521;-79
2022/01/29 00:42:50;;;;;;;64.53;24.88;;;;;;;4.90;94.01;102708.06;5049952;28;20028;-79
2022/01/29 00:45:15;;;;;;;58.42;22.95;;;;;;;4.92;93.81;102719.94;5026197;28;20593;-79
2022/01/29 00:47:41;;;;;;;67.30;23.98;;;;;;;4.90;93.68;102720.91;5044965;28;20036;-79
2022/01/29 00:50:08;;;;;;;55.42;22.92;;;;;;;4.96;93.46;102710.34;5039130;28;20482;-80
2022/01/29 00:52:33;;;;;;;58.25;23.95;;;;;;;4.87;94.08;102701.31;5050685;28;20036;-78
2022/01/29 00:54:59;;;;;;;55.53;23.65;;;;;;;4.93;93.83;102710.50;5040690;28;20651;-78
2022/01/29 00:57:28;;;;;;;51.30;22.20;;;;;;;4.94;93.83;102702.72;5078191;28;20624;-79
2022/01/29 00:59:54;;;;;;;59.45;22.90;;;;;;;4.93;93.26;102695.88;5035419;28;20063;-78
2022/01/29 01:02:19;;;;;;;63.65;25.40;;;;;;;4.96;92.96;102698.31;5034987;28;20060;-79
2022/01/29 01:04:45;;;;;;;51.80;23.77;;;;;;;4.92;93.34;102691.66;5046862;28;20430;-78
2022/01/29 01:07:10;;;;;;;60.75;24.48;;;;;;;5.03;93.09;102684.28;5059381;28;20444;-79
2022/01/29 01:09:36;;;;;;;63.35;23.17;;;;;;;4.98;93.21;102682.84;5049902;28;21482;-79
2022/01/29 01:12:03;;;;;;;68.43;26.08;;;;;;;4.97;93.16;102664.00;5033557;28;20033;-79
2022/01/29 01:14:29;;;;;;;57.22;23.60;;;;;;;4.96;92.90;102654.63;5038418;28;20417;-78
2022/01/29 01:16:54;;;;;;;53.20;23.48;;;;;;;4.86;93.90;102648.25;5051937;28;20036;-78
2022/01/29 01:19:25;;;;;;;56.60;23.38;;;;;;;4.95;93.73;102634.13;5049080;28;20036;-79
2022/01/29 01:21:54;;;;;;;47.42;22.33;;;;;;;4.96;93.41;102625.50;5051785;28;20036;-78
2022/01/29 01:24:19;;;;;;;52.33;22.17;;;;;;;4.95;93.06;102621.25;5040736;28;20119;-78
2022/01/29 01:26:45;;;;;;;52.63;22.58;;;;;;;4.86;93.45;102628.53;5047141;28;20524;-78
2022/01/29 01:29:10;;;;;;;56.55;23.67;;;;;;;4.90;93.54;102636.94;5030970;28;20107;-79
2022/01/29 01:31:37;;;;;;;50.15;22.23;;;;;;;4.98;93.42;102639.13;5038863;28;20048;-79
2022/01/29 01:34:05;;;;;;;58.08;23.05;;;;;;;5.03;93.07;102632.03;5046514;28;20028;-79
2022/01/29 01:36:31;;;;;;;49.97;22.33;;;;;;;5.07;92.37;102623.25;5022434;28;20538;-79
2022/01/29 01:39:04;;;;;;;54.00;22.20;;;;;;;4.95;92.46;102616.94;5065793;28;20044;-78
2022/01/29 01:41:36;;;;;;;48.83;21.95;;;;;;;4.95;93.23;102614.38;5047572;28;20432;-80
2022/01/29 01:44:02;;;;;;;50.58;21.80;;;;;;;5.06;92.39;102621.56;5045396;28;20033;-78
2022/01/29 01:46:28;;;;;;;57.35;21.60;;;;;;;5.02;92.49;102609.78;5065135;28;20071;-78
2022/01/29 01:48:55;;;;;;;48.45;20.45;;;;;;;5.02;92.86;102613.16;5031614;28;20063;-79
2022/01/29 01:51:21;;;;;;;49.28;20.85;;;;;;;5.01;92.69;102608.94;5069584;28;20051;-79
2022/01/29 01:53:47;;;;;;;49.78;21.75;;;;;;;4.99;93.24;102603.06;5035031;28;20806;-78
2022/01/29 01:56:13;;;;;;;50.67;20.17;;;;;;;4.98;92.74;102598.81;5033012;28;20299;-79
2022/01/29 01:58:38;;;;;;;53.30;22.35;;;;;;;5.07;92.70;102602.69;5031604;28;20462;-79
2022/01/29 02:01:04;;;;;;;48.55;21.17;;;;;;;5.02;92.68;102581.50;5033566;28;20039;-77
2022/01/29 02:03:29;;;;;;;55.08;21.77;;;;;;;4.98;93.12;102582.56;5043049;28;20082;-79
2022/01/29 02:05:56;;;;;;;45.10;20.92;;;;;;;5.09;93.06;102577.72;5034140;28;20707;-79
2022/01/29 02:08:21;;;;;;;54.45;22.23;;;;;;;5.01;93.14;102583.25;5023531;28;20020;-78
2022/01/29 02:10:48;;;;;;;51.97;21.48;;;;;;;5.11;92.93;102580.22;5055762;28;20101;-79
2022/01/29 02:13:14;;;;;;;48.60;20.55;;;;;;;5.02;93.18;102572.03;5049629;28;20036;-78
2022/01/29 02:15:40;;;;;;;52.53;21.23;;;;;;;5.07;93.29;102570.06;5033377;28;20063;-78
2022/01/29 02:18:12;;;;;;;52.50;21.08;;;;;;;5.05;93.74;102560.78;5067489;28;20072;-79
2022/01/29 02:20:38;;;;;;;53.57;21.93;;;;;;;5.00;93.66;102552.44;5029658;28;20056;-78
2022/01/29 02:23:05;;;;;;;55.65;21.65;;;;;;;5.03;93.56;102550.56;5035845;28;20590;-79
2022/01/29 02:25:36;;;;;;;53.33;22.23;;;;;;;5.11;93.60;102557.06;5042783;28;20032;-78
2022/01/29 02:28:08;;;;;;;43.75;19.77;;;;;;;5.05;93.47;102550.50;5046387;28;20045;-78
2022/01/29 02:30:35;;;;;;;51.08;21.55;;;;;;;4.92;94.30;102552.00;5033240;28;20037;-79
2022/01/29 02:33:05;;;;;;;50.83;20.35;;;;;;;5.04;94.15;102541.09;5042380;28;20029;-79
2022/01/29 02:35:30;;;;;;;51.88;21.13;;;;;;;5.08;94.15;102540.03;5046748;28;20044;-78
2022/01/29 02:37:57;;;;;;;46.85;20.15;;;;;;;5.06;94.84;102536.72;5037035;28;20043;-79
2022/01/29 02:40:23;;;;;;;51.00;21.42;;;;;;;5.00;94.78;102531.88;5046487;28;20036;-78
2022/01/29 02:42:56;;;;;;;52.80;21.77;;;;;;;4.96;95.10;102520.09;5023555;28;20044;-79
2022/01/29 02:45:21;;;;;;;;;;;;;;;4.96;95.53;102522.66;5033180;28;20090;-79
2022/01/29 02:47:47;;;;;;;48.63;20.40;;;;;;;4.99;95.16;102512.22;5032889;28;19920;-79
2022/01/29 02:50:12;;;;;;;52.33;20.98;;;;;;;5.04;95.50;102505.09;5031357;28;20048;-78
2022/01/29 02:52:38;;;;;;;47.50;20.35;;;;;;;4.98;95.55;102508.81;5033605;28;20429;-78
2022/01/29 02:55:05;;;;;;;48.85;19.98;;;;;;;5.09;95.47;102510.84;5046538;28;20043;-78
2022/01/29 02:57:31;;;;;;;40.58;18.38;;;;;;;5.02;94.88;102501.78;5049096;28;20036;-79
2022/01/29 03:00:00;;;;;;;47.65;20.75;;;;;;;4.98;95.59;102501.09;5046829;28;20028;-79
2022/01/29 03:02:27;;;;;;;51.72;21.08;;;;;;;4.95;95.76;102495.28;5048650;28;20482;-79
2022/01/29 03:04:54;;;;;;;49.95;20.35;;;;;;;5.05;95.82;102496.50;5033542;28;20020;-79
2022/01/29 03:07:20;;;;;;;46.45;19.98;;;;;;;5.06;95.68;102482.72;5039472;28;20028;-79
2022/01/29 03:09:45;;;;;;;49.22;19.88;;;;;;;5.11;95.82;102485.88;5041659;28;20418;-79
2022/01/29 03:12:10;;;;;;;51.72;20.35;;;;;;;5.05;95.97;102481.06;5049029;28;20035;-79
2022/01/29 03:14:36;;;;;;;48.30;19.52;;;;;;;5.03;96.72;102481.13;5030334;28;20424;-79
2022/01/29 03:17:02;;;;;;;41.58;18.58;;;;;;;4.98;96.58;102472.81;5028234;28;20100;-79
2022/01/29 03:19:27;;;;;;;42.80;19.55;;;;;;;5.01;96.74;102480.38;5034315;28;20127;-78
2022/01/29 03:21:52;;;;;;;38.05;17.33;;;;;;;5.02;96.60;102463.22;5034684;28;20051;-78
2022/01/29 03:24:18;;;;;;;49.00;18.55;;;;;;;5.02;96.81;102461.47;5032723;28;20033;-79
2022/01/29 03:26:43;;;;;;;45.03;18.05;;;;;;;4.96;96.79;102461.78;5036665;28;20040;-78
2022/01/29 03:29:09;;;;;;;45.60;18.73;;;;;;;5.05;96.91;102457.94;5026270;28;20035;-80
2022/01/29 03:31:34;;;;;;;51.58;18.73;;;;;;;5.00;96.49;102468.44;5060390;28;20043;-79
2022/01/29 03:34:00;;;;;;;41.58;17.70;;;;;;;5.02;97.02;102450.34;5053799;28;20090;-79
2022/01/29 03:36:26;;;;;;;37.70;17.88;;;;;;;5.13;96.71;102455.78;5034379;28;20444;-78
2022/01/29 03:38:51;;;;;;;37.72;16.88;;;;;;;5.12;96.28;102451.53;5044538;28;20056;-79
2022/01/29 03:41:17;;;;;;;41.92;16.17;;;;;;;5.14;96.53;102457.44;5073656;28;20048;-79
2022/01/29 03:43:46;;;;;;;41.38;16.10;;;;;;;5.19;96.51;102457.19;5031685;28;20728;-79
2022/01/29 03:46:13;;;;;;;44.83;17.73;;;;;;;5.19;96.49;102452.88;5047313;28;20047;-79
2022/01/29 03:48:39;;;;;;;36.55;16.30;;;;;;;5.21;96.96;102448.47;5029230;28;20086;-79
2022/01/29 03:51:05;;;;;;;38.97;16.02;;;;;;;5.18;96.99;102435.78;5035969;28;20052;-79
2022/01/29 03:53:30;;;;;;;36.40;16.23;;;;;;;5.10;97.12;102445.63;5047480;28;20080;-79
2022/01/29 03:55:55;;;;;;;33.67;16.35;;;;;;;5.11;97.72;102436.19;5047911;28;20032;-79
2022/01/29 03:58:21;;;;;;;36.28;16.33;;;;;;;5.07;97.86;102438.09;5032580;28;20460;-79
2022/01/29 04:00:46;;;;;;;37.92;17.10;;;;;;;5.21;97.54;102440.75;5038583;28;20565;-79
2022/01/29 04:03:12;;;;;;;33.88;15.90;;;;;;;5.18;98.14;102433.22;5053987;28;20037;-79
2022/01/29 04:05:37;;;;;;;39.47;15.82;;;;;;;5.14;98.63;102431.72;5051026;28;20032;-79
2022/01/29 04:08:09;;;;;;;35.08;15.57;;;;;;;5.16;98.49;102422.19;5042602;28;20041;-79
2022/01/29 04:10:34;;;;;;;36.25;16.35;;;;;;;5.11;98.66;102423.34;5049666;28;20654;-79
2022/01/29 04:13:00;;;;;;;41.53;16.50;;;;;;;5.21;99.13;102417.59;5056605;28;20035;-79
2022/01/29 04:15:26;;;;;;;41.33;16.77;;;;;;;5.20;99.05;102418.53;5053779;28;20028;-79
2022/01/29 04:17:51;;;;;;;37.80;16.85;;;;;;;5.10;99.13;102416.53;5055803;28;20086;-79
2022/01/29 04:20:17;;;;;;;35.67;15.77;;;;;;;5.14;99.95;102411.16;5057972;28;20040;-79
2022/01/29 04:22:42;;;;;;;37.20;15.88;;;;;;;5.16;99.87;102416.19;5047877;28;20102;-79
2022/01/29 04:25:08;;;;;;;30.42;14.55;;;;;;;5.11;100.00;102408.75;5059925;28;20032;-79
2022/01/29 04:27:40;;;;;;;44.17;15.43;;;;;;;5.06;100.00;102414.09;5052102;28;20037;-79
2022/01/29 04:30:12;;;;;;;34.17;14.82;;;;;;;5.05;100.00;102420.19;5055601;28;20036;-79
2022/01/29 04:35:06;;;;;;;36.10;13.82;;;;;;;5.19;100.00;102423.75;5053298;28;20317;-79
2022/01/29 04:37:31;;;;;;;32.20;14.45;;;;;;;5.11;100.00;102426.75;5035397;28;20031;-79
2022/01/29 04:39:57;;;;;;;30.17;13.23;;;;;;;5.09;100.00;102426.00;5053019;28;20460;-79
2022/01/29 04:42:22;;;;;;;31.15;14.25;;;;;;;5.09;100.00;102423.41;5054084;28;20025;-79
2022/01/29 04:44:48;;;;;;;29.58;13.02;;;;;;;5.16;100.00;102419.63;5037550;28;20299;-79
2022/01/29 04:47:13;;;;;;;32.35;13.98;;;;;;;5.03;100.00;102416.84;5036461;28;20066;-79
2022/01/29 04:49:39;;;;;;;29.10;13.68;;;;;;;5.06;100.00;102423.56;5040370;28;20032;-78
2022/01/29 04:52:05;;;;;;;27.98;13.73;;;;;;;5.06;100.00;102408.13;5036051;28;20066;-79
2022/01/29 04:54:30;;;;;;;28.67;13.15;;;;;;;5.05;100.00;102406.50;5052602;28;20668;-79
2022/01/29 04:56:56;;;;;;;27.33;13.35;;;;;;;5.14;100.00;102398.31;5049100;28;20332;-79
2022/01/29 04:59:21;;;;;;;33.22;13.48;;;;;;;5.12;100.00;102407.81;5047413;28;20036;-79
2022/01/29 05:01:47;;;;;;;29.55;12.82;;;;;;;5.12;100.00;102394.94;5049075;28;20044;-79
2022/01/29 05:04:12;;;;;;;27.77;13.13;;;;;;;5.22;100.00;102401.28;5048011;28;20028;-79
2022/01/29 05:06:38;;;;;;;29.52;13.48;;;;;;;5.17;100.00;102399.88;5041220;28;20024;-78
2022/01/29 05:09:06;;;;;;;27.55;13.80;;;;;;;5.19;100.00;102398.03;5038857;28;21600;-79
2022/01/29 05:11:32;;;;;;;26.65;12.50;;;;;;;5.17;100.00;102398.13;5046666;28;20033;-79
2022/01/29 05:13:58;;;;;;;25.70;12.65;;;;;;;5.15;100.00;102393.97;5035177;28;20078;-79
2022/01/29 05:27:31;;;;;;;108.15;40.83;;;;;;;5.21;100.00;102384.19;5052830;28;20037;-78
2022/01/29 05:29:56;;;;;;;25.77;14.45;;;;;;;5.36;100.00;102387.66;5065238;28;20036;-78
2022/01/29 05:32:22;;;;;;;27.35;12.95;;;;;;;5.31;100.00;102374.22;5032262;28;20033;-79
2022/01/29 05:34:48;;;;;;;29.40;12.63;;;;;;;5.32;100.00;102377.63;5048631;28;20024;-79
2022/01/29 05:37:13;;;;;;;30.45;12.23;;;;;;;5.36;100.00;102377.38;5046202;28;20037;-79
2022/01/29 05:39:39;;;;;;;23.02;13.40;;;;;;;5.27;100.00;102365.00;5043657;28;20513;-78
2022/01/29 05:42:05;;;;;;;23.15;12.27;;;;;;;5.28;100.00;102368.44;5053578;28;20040;-79
2022/01/29 05:44:30;;;;;;;26.67;13.18;;;;;;;5.43;100.00;102365.84;5041519;28;20122;-79
2022/01/29 05:46:56;;;;;;;23.00;12.02;;;;;;;5.45;100.00;102366.59;5033446;28;20525;-79
2022/01/29 05:49:21;;;;;;;24.08;11.23;;;;;;;5.36;100.00;102368.84;5035486;28;20059;-79
2022/01/29 05:51:47;;;;;;;20.33;11.48;;;;;;;5.41;100.00;102359.13;5048673;28;20058;-79
2022/01/29 05:54:12;;;;;;;25.60;11.80;;;;;;;5.41;100.00;102361.72;5050588;28;20036;-80
2022/01/29 05:56:38;;;;;;;18.48;10.95;;;;;;;5.36;100.00;102358.56;5038782;28;20040;-79
2022/01/29 05:59:03;;;;;;;22.33;11.00;;;;;;;5.42;100.00;102353.06;5034157;28;20037;-80
2022/01/29 06:01:29;;;;;;;25.23;12.07;;;;;;;5.41;100.00;102349.66;5053983;28;20529;-79
2022/01/29 06:03:54;;;;;;;25.33;11.52;;;;;;;5.41;100.00;102341.94;5045707;28;20652;-79
2022/01/29 06:06:20;;;;;;;24.40;12.60;;;;;;;5.44;100.00;102346.06;5053695;28;20040;-79
2022/01/29 06:08:45;;;;;;;25.48;13.13;;;;;;;5.45;100.00;102353.72;5037393;28;20097;-79
2022/01/29 06:11:10;;;;;;;23.10;12.50;;;;;;;5.52;100.00;102343.94;5052018;28;20036;-79
2022/01/29 06:13:36;;;;;;;28.00;13.60;;;;;;;5.45;100.00;102348.56;5050648;28;20027;-78
2022/01/29 06:16:02;;;;;;;25.27;13.00;;;;;;;5.59;100.00;102349.56;5038949;28;20159;-79
2022/01/29 06:18:28;;;;;;;25.02;12.52;;;;;;;5.61;100.00;102345.16;5034843;28;20052;-79
2022/01/29 06:20:58;;;;;;;26.27;13.68;;;;;;;5.57;100.00;102343.66;5049062;28;20040;-79
2022/01/29 06:23:30;;;;;;;29.73;14.27;;;;;;;5.58;100.00;102338.44;5052560;28;20025;-79
2022/01/29 06:25:56;;;;;;;30.35;14.30;;;;;;;5.58;100.00;102342.75;5035950;28;20039;-78
2022/01/29 06:28:22;;;;;;;27.98;12.70;;;;;;;5.60;100.00;102331.47;5067213;28;20222;-79
2022/01/29 06:30:47;;;;;;;32.00;14.10;;;;;;;5.61;100.00;102327.13;5035462;28;20347;-78
2022/01/29 06:33:13;;;;;;;30.35;14.52;;;;;;;5.64;100.00;102322.63;5049211;28;20039;-78
2022/01/29 06:35:41;;;;;;;30.67;14.55;;;;;;;5.76;100.00;102323.69;5047928;28;20036;-79
2022/01/29 06:38:09;;;;;;;27.17;13.93;;;;;;;5.81;100.00;102311.38;5038019;28;20033;-79
2022/01/29 06:40:35;;;;;;;28.55;13.75;;;;;;;5.74;100.00;102317.78;5033278;28;20048;-79
2022/01/29 06:43:01;;;;;;;26.08;13.85;;;;;;;5.84;100.00;102311.22;5040534;28;20040;-79
2022/01/29 06:45:31;;;;;;;26.92;13.98;;;;;;;5.83;100.00;102306.97;5034043;28;20047;-79
2022/01/29 06:47:56;;;;;;;28.00;14.10;;;;;;;5.80;100.00;102311.47;5034332;28;20060;-79
2022/01/29 06:50:22;;;;;;;25.15;14.27;;;;;;;5.83;100.00;102306.97;5068128;28;20344;-79
2022/01/29 06:52:48;;;;;;;30.65;13.73;;;;;;;5.90;100.00;102310.03;5061559;28;20071;-78
2022/01/29 06:55:13;;;;;;;27.33;14.40;;;;;;;5.88;100.00;102311.88;5052194;28;20032;-79
2022/01/29 06:57:39;;;;;;;26.85;14.50;;;;;;;5.86;100.00;102311.13;5038250;28;20418;-79
2022/01/29 07:00:07;;;;;;;24.70;13.82;;;;;;;5.97;100.00;102300.22;5045873;28;20041;-79
2022/01/29 07:02:33;;;;;;;24.77;14.10;;;;;;;5.92;100.00;102305.63;5040023;28;20411;-79
2022/01/29 07:04:59;;;;;;;27.20;12.93;;;;;;;5.95;100.00;102308.06;5050306;28;20024;-79
2022/01/29 07:07:26;;;;;;;25.67;13.13;;;;;;;6.01;100.00;102299.16;5041919;28;20055;-78
2022/01/29 07:09:51;;;;;;;24.92;13.00;;;;;;;6.05;100.00;102287.75;5036476;28;20033;-78
2022/01/29 07:12:17;;;;;;;30.85;13.95;;;;;;;6.01;100.00;102288.84;5053926;28;20028;-78
2022/01/29 07:14:43;;;;;;;27.42;13.77;;;;;;;6.11;100.00;102286.56;5047322;28;20036;-78
2022/01/29 07:17:13;;;;;;;23.83;12.95;;;;;;;6.07;100.00;102288.50;5033063;28;20505;-78
2022/01/29 07:19:39;;;;;;;22.80;12.38;;;;;;;6.14;100.00;102294.09;5043502;28;20101;-78
2022/01/29 07:22:05;;;;;;;24.52;12.95;;;;;;;6.15;100.00;102285.47;5076517;28;20496;-79
2022/01/29 07:24:32;;;;;;;26.10;12.90;;;;;;;6.11;100.00;102284.81;5027703;28;20444;-78
2022/01/29 07:26:57;;;;;;;27.23;13.38;;;;;;;6.19;100.00;102292.91;5042504;28;20135;-78
2022/01/29 07:29:23;;;;;;;25.48;12.43;;;;;;;6.28;100.00;102288.97;5028756;28;20098;-79
2022/01/29 07:31:48;;;;;;;22.67;12.50;;;;;;;6.28;100.00;102285.56;5034794;28;20427;-78
2022/01/29 07:34:14;;;;;;;21.60;12.27;;;;;;;6.24;100.00;102278.00;5041153;28;20029;-78
2022/01/29 07:36:39;;;;;;;23.63;12.85;;;;;;;6.31;100.00;102281.06;5036316;28;20047;-78
2022/01/29 07:39:05;;;;;;;26.63;14.10;;;;;;;6.33;100.00;102283.53;5036680;28;20070;-79
2022/01/29 07:41:30;;;;;;;23.15;12.50;;;;;;;6.24;100.00;102282.34;5045751;28;20033;-77
2022/01/29 07:43:58;;;;;;;24.70;13.13;;;;;;;6.30;100.00;102288.88;5034858;28;20048;-78
2022/01/29 07:46:23;;;;;;;26.60;14.27;;;;;;;6.34;100.00;102267.97;5045051;28;20036;-79
2022/01/29 07:48:49;;;;;;;28.27;13.70;;;;;;;6.25;100.00;102268.53;5036300;28;20032;-78
2022/01/29 07:51:14;;;;;;;40.33;19.35;;;;;;;6.31;100.00;102270.75;5042560;28;20032;-78
2022/01/29 07:53:39;;;;;;;24.50;13.20;;;;;;;6.34;100.00;102272.31;5044001;28;20033;-78
2022/01/29 07:56:05;;;;;;;25.38;13.75;;;;;;;6.31;100.00;102275.91;5066347;28;20183;-78
2022/01/29 07:58:31;;;;;;;25.58;13.77;;;;;;;6.30;100.00;102269.09;5040373;28;20531;-78
2022/01/29 08:00:56;;;;;;;27.45;13.25;;;;;;;6.33;100.00;102266.34;5051356;28;20041;-77
2022/01/29 08:03:21;;;;;;;23.95;13.95;;;;;;;6.40;100.00;102261.63;5049166;28;20031;-79
2022/01/29 08:05:47;;;;;;;29.48;13.80;;;;;;;6.38;100.00;102253.16;5034334;28;20436;-78
2022/01/29 08:08:12;;;;;;;22.02;12.50;;;;;;;6.33;100.00;102261.19;5030055;28;20036;-78
2022/01/29 08:10:38;;;;;;;23.95;13.10;;;;;;;6.42;100.00;102264.94;5063342;28;20029;-78
2022/01/29 08:13:03;;;;;;;29.50;14.15;;;;;;;6.35;100.00;102264.50;5050514;28;20028;-78
2022/01/29 08:15:29;;;;;;;25.80;14.07;;;;;;;6.46;100.00;102257.84;5053529;28;20115;-78
2022/01/29 08:17:54;;;;;;;27.40;13.70;;;;;;;6.42;100.00;102257.19;5045733;28;20040;-78
2022/01/29 08:20:20;;;;;;;23.92;12.90;;;;;;;6.45;100.00;102257.03;5054626;28;20081;-78
2022/01/29 08:22:47;;;;;;;24.88;13.05;;;;;;;6.51;100.00;102254.06;5038352;28;20040;-78
2022/01/29 08:25:13;;;;;;;24.52;13.13;;;;;;;6.57;100.00;102253.72;5033621;28;20020;-78
2022/01/29 08:27:38;;;;;;;27.42;12.82;;;;;;;6.56;100.00;102249.47;5038921;28;20060;-78
2022/01/29 08:30:04;;;;;;;20.95;11.90;;;;;;;6.55;100.00;102246.97;5053052;28;20063;-78
2022/01/29 08:32:30;;;;;;;22.77;13.50;;;;;;;6.62;100.00;102237.94;5047028;28;20083;-79
2022/01/29 08:34:55;;;;;;;23.67;12.93;;;;;;;6.60;100.00;102230.31;5065482;28;20040;-78
2022/01/29 08:37:21;;;;;;;22.15;12.70;;;;;;;6.56;100.00;102246.88;5037377;28;20055;-78
2022/01/29 08:39:46;;;;;;;23.27;12.77;;;;;;;6.58;100.00;102244.22;5047614;28;20040;-78
2022/01/29 08:42:12;;;;;;;23.70;12.65;;;;;;;6.67;100.00;102230.75;5032544;28;20043;-78
2022/01/29 08:44:37;;;;;;;23.88;13.57;;;;;;;6.79;100.00;102239.47;5039116;28;20036;-78
2022/01/29 08:47:03;;;;;;;23.73;12.68;;;;;;;6.77;100.00;102231.00;5031687;28;20033;-78
2022/01/29 08:49:29;;;;;;;19.75;11.90;;;;;;;6.76;100.00;102240.50;5049072;28;20071;-78
2022/01/29 08:51:54;;;;;;;21.73;12.48;;;;;;;6.75;100.00;102249.16;5032774;28;20032;-78
2022/01/29 08:54:20;;;;;;;22.90;13.10;;;;;;;6.70;100.00;102233.13;5032967;28;20487;-78
2022/01/29 08:56:45;;;;;;;21.85;12.20;;;;;;;6.83;100.00;102230.63;5033615;28;20040;-78
2022/01/29 08:59:11;;;;;;;20.48;12.15;;;;;;;6.88;100.00;102233.75;5034447;28;20040;-78
2022/01/29 09:01:36;;;;;;;19.80;12.23;;;;;;;6.89;100.00;102224.25;5038666;28;20169;-78
2022/01/29 09:04:02;;;;;;;26.25;12.70;;;;;;;6.89;100.00;102229.41;5044948;28;20047;-78
2022/01/29 09:06:28;;;;;;;24.20;12.77;;;;;;;7.01;100.00;102233.81;5055018;28;20044;-78
2022/01/29 09:08:53;;;;;;;20.42;12.15;;;;;;;6.95;100.00;102227.28;5048244;28;20052;-79
2022/01/29 09:11:19;;;;;;;20.48;12.65;;;;;;;6.94;100.00;102224.78;5048372;28;20040;-79
2022/01/29 09:13:45;;;;;;;25.90;12.70;;;;;;;7.08;100.00;102209.25;5062887;28;20118;-78
2022/01/29 09:16:11;;;;;;;22.05;11.50;;;;;;;7.06;99.75;102211.09;5043337;28;20032;-79
2022/01/29 09:18:36;;;;;;;21.25;11.88;;;;;;;7.01;100.00;102218.31;5035668;28;20044;-78
2022/01/29 09:21:03;;;;;;;24.60;13.55;;;;;;;7.13;100.00;102199.47;5052005;28;20029;-78
2022/01/29 09:23:29;;;;;;;19.63;12.13;;;;;;;7.14;99.84;102193.41;5045774;28;20109;-78
2022/01/29 09:25:55;;;;;;;20.08;11.73;;;;;;;7.16;99.73;102188.97;5066951;28;20044;-79
2022/01/29 09:28:22;;;;;;;21.05;11.75;;;;;;;7.18;99.65;102192.25;5039504;28;20036;-79
2022/01/29 09:30:49;;;;;;;25.60;12.38;;;;;;;7.25;99.31;102186.69;5050892;28;20076;-78
2022/01/29 09:33:15;;;;;;;18.98;11.30;;;;;;;7.28;98.83;102179.59;5034091;28;20025;-78
2022/01/29 09:35:42;;;;;;;19.65;11.57;;;;;;;7.28;99.03;102173.59;5053922;28;20044;-78
2022/01/29 09:38:09;;;;;;;23.10;12.73;;;;;;;7.27;99.07;102159.88;5044228;28;20036;-78
2022/01/29 09:40:37;;;;;;;30.50;13.13;;;;;;;7.20;99.35;102168.94;5050702;28;20073;-78
2022/01/29 09:43:05;;;;;;;23.02;11.70;;;;;;;7.33;99.23;102159.47;5052822;28;20038;-79
2022/01/29 09:45:31;;;;;;;19.55;11.63;;;;;;;7.36;98.89;102159.25;5033298;28;20048;-78
2022/01/29 09:48:03;;;;;;;26.35;12.43;;;;;;;7.31;99.38;102161.31;5032037;28;20033;-80
2022/01/29 09:50:38;;;;;;;21.67;11.85;;;;;;;7.34;99.58;102170.59;5043811;28;20756;-78
2022/01/29 09:53:05;;;;;;;23.05;12.65;;;;;;;7.33;99.47;102167.22;5029478;28;20513;-78
2022/01/29 09:55:31;;;;;;;22.67;12.02;;;;;;;7.33;99.50;102174.97;5042134;28;20044;-79
2022/01/29 09:57:58;;;;;;;23.52;12.05;;;;;;;7.40;99.60;102176.22;5047797;28;20090;-79
2022/01/29 10:00:24;;;;;;;24.02;11.98;;;;;;;7.53;99.28;102183.13;5055239;28;20482;-79
2022/01/29 10:03:11;;;;;;;20.90;11.18;;;;;;;7.62;98.76;102195.41;5023011;28;20044;-78
2022/01/29 10:05:42;;;;;;;20.00;11.05;;;;;;;7.71;98.30;102184.47;5051593;28;20058;-79
2022/01/29 10:08:09;;;;;;;22.05;10.52;;;;;;;7.72;98.32;102175.81;5025069;28;20423;-79
2022/01/29 10:10:40;;;;;;;20.40;11.77;;;;;;;7.62;98.77;102187.66;5029594;28;20099;-80
2022/01/29 10:13:27;;;;;;;20.90;11.05;;;;;;;7.67;98.66;102187.38;5034391;28;20440;-81
2022/01/29 10:16:12;;;;;;;19.67;9.95;;;;;;;7.69;98.58;102195.84;5029234;28;20060;-79
2022/01/29 10:18:40;;;;;;;18.83;10.32;;;;;;;7.70;98.63;102182.00;5046033;28;20045;-79
2022/01/29 10:21:13;;;;;;;16.80;10.32;;;;;;;7.86;98.08;102182.59;5056155;28;20043;-79
2022/01/29 10:23:40;;;;;;;17.27;10.50;;;;;;;7.77;98.48;102180.66;5050814;28;20044;-79
2022/01/29 10:26:07;;;;;;;15.88;9.93;;;;;;;7.87;98.52;102178.25;5042766;28;20871;-79
2022/01/29 10:28:33;;;;;;;15.50;9.88;;;;;;;7.88;98.91;102167.00;5056068;28;20442;-80
2022/01/29 10:31:05;;;;;;;24.20;9.93;;;;;;;7.90;99.25;102165.97;5054712;28;20032;-78
2022/01/29 10:33:32;;;;;;;17.08;9.65;;;;;;;7.95;99.39;102155.34;5060512;28;20039;-79
2022/01/29 10:36:02;;;;;;;18.23;9.82;;;;;;;7.83;99.38;102146.66;5044692;28;20491;-79
2022/01/29 10:38:55;;;;;;;18.50;9.00;;;;;;;7.88;99.90;102156.69;5043161;28;20131;-79
2022/01/29 10:41:26;;;;;;;15.07;9.15;;;;;;;7.88;100.00;102147.16;5062878;28;20403;-80
2022/01/29 10:43:59;;;;;;;17.90;9.32;;;;;;;7.83;100.00;102149.22;5043639;28;20095;-79
2022/01/29 10:46:30;;;;;;;20.35;8.90;;;;;;;7.77;100.00;102155.66;5031713;28;20500;-80
2022/01/29 10:48:57;;;;;;;13.88;8.18;;;;;;;7.83;100.00;102159.56;5041565;28;20024;-79
2022/01/29 10:51:22;;;;;;;15.45;8.18;;;;;;;7.75;100.00;102147.19;5043346;28;20033;-79
2022/01/29 10:53:48;;;;;;;15.23;8.23;;;;;;;7.81;100.00;102145.94;5026097;28;20047;-79
2022/01/29 10:56:14;;;;;;;13.02;7.82;;;;;;;7.78;100.00;102149.56;5046590;28;20039;-79
2022/01/29 10:58:41;;;;;;;11.23;7.15;;;;;;;7.90;100.00;102142.72;5050227;28;20512;-79
2022/01/29 11:01:25;;;;;;;12.98;6.45;;;;;;;7.82;100.00;102132.09;5048808;28;20029;-80
2022/01/29 11:03:54;;;;;;;11.73;6.32;;;;;;;7.79;100.00;102129.72;5065271;28;20032;-79
2022/01/29 11:06:27;;;;;;;12.32;6.85;;;;;;;7.92;100.00;102127.13;5033288;28;20518;-80
2022/01/29 11:08:53;;;;;;;19.13;9.27;;;;;;;7.84;100.00;102109.59;5038364;28;20052;-79
2022/01/29 11:11:18;;;;;;;10.35;5.68;;;;;;;7.85;100.00;102112.97;5044862;28;20052;-79
2022/01/29 11:13:46;;;;;;;12.55;5.20;;;;;;;7.95;100.00;102101.09;5042776;28;20323;-80
2022/01/29 11:16:13;;;;;;;9.32;5.32;;;;;;;7.95;100.00;102096.75;5024745;28;20033;-79
2022/01/29 11:18:39;;;;;;;10.55;4.88;;;;;;;7.91;100.00;102097.06;5023252;28;20607;-79
2022/01/29 11:21:05;;;;;;;10.75;4.70;;;;;;;7.95;100.00;102088.19;5030889;28;20036;-79
2022/01/29 11:23:31;;;;;;;8.35;4.18;;;;;;;8.00;100.00;102088.66;5046233;28;20513;-79
2022/01/29 11:25:59;;;;;;;6.38;4.03;;;;;;;8.02;100.00;102080.81;5034165;28;20033;-79